Time;durP1;ratioP1;P1;durP2;ratioP2;P2;SDS_P1;SDS_P2;PMS_P1;PMS_P2;Temp;Humidity;BMP_temperature;BMP_pressure;BME280_temperature;BME280_humidity;BME280_pressure;Samples;Min_cycle;Max_cycle;Signal;HPM_P1;HPM_P2
2022/05/11 00:01:58;;;;;;;4.83;2.17;;;25.50;41.80;;;;;;5039879;27;88507;-74
2022/05/11 00:04:26;;;;;;;5.43;1.70;;;25.50;41.70;;;;;;5021539;27;91521;-74
2022/05/11 00:06:54;;;;;;;2.70;1.57;;;25.50;41.70;;;;;;5039110;28;90137;-74
2022/05/11 00:09:22;;;;;;;2.53;1.60;;;25.50;41.70;;;;;;5036453;28;88435;-74
2022/05/11 00:11:50;;;;;;;4.00;1.77;;;25.50;41.70;;;;;;5039060;28;88586;-74
2022/05/11 00:14:18;;;;;;;4.03;1.40;;;25.40;41.70;;;;;;5038956;27;89540;-73
2022/05/11 00:16:48;;;;;;;6.07;2.40;;;25.50;41.70;;;;;;5022694;27;90361;-74
2022/05/11 00:19:20;;;;;;;4.87;1.73;;;25.10;41.50;;;;;;5034598;28;91406;-74
2022/05/11 00:21:48;;;;;;;4.17;2.10;;;25.40;41.70;;;;;;5029111;28;88151;-74
2022/05/11 00:24:16;;;;;;;4.30;1.97;;;25.40;41.70;;;;;;5040108;28;89438;-74
2022/05/11 00:26:45;;;;;;;4.27;2.10;;;25.40;41.70;;;;;;5024647;27;88943;-74
2022/05/11 00:29:13;;;;;;;5.10;1.97;;;25.40;41.70;;;;;;5021775;28;91744;-74
2022/05/11 00:31:41;;;;;;;5.83;2.57;;;25.40;41.70;;;;;;5036725;27;88658;-73
2022/05/11 00:34:11;;;;;;;2.47;1.57;;;25.40;41.70;;;;;;5031260;27;89515;-73
2022/05/11 00:36:39;;;;;;;5.23;2.07;;;25.40;41.70;;;;;;5038587;27;90189;-74
2022/05/11 00:39:07;;;;;;;5.73;1.70;;;25.40;41.70;;;;;;5032126;27;88874;-74
2022/05/11 00:41:35;;;;;;;2.83;1.83;;;25.30;41.60;;;;;;5019599;28;89081;-73
2022/05/11 00:44:05;;;;;;;4.80;1.60;;;25.30;41.60;;;;;;5031795;28;89895;-72
2022/05/11 00:46:36;;;;;;;3.67;1.77;;;25.40;41.70;;;;;;5045652;27;90815;-72
2022/05/11 00:51:56;;;;;;;2.23;1.47;;;25.40;41.70;;;;;;5038497;28;88577;-73
2022/05/11 00:54:24;;;;;;;5.40;1.80;;;25.40;41.80;;;;;;5037555;28;90569;-73
2022/05/11 00:56:54;;;;;;;5.60;1.70;;;25.40;41.80;;;;;;5023636;27;89419;-73
2022/05/11 00:59:24;;;;;;;4.60;1.77;;;25.40;41.80;;;;;;5037140;28;88857;-73
2022/05/11 01:01:52;;;;;;;4.20;2.00;;;25.40;41.90;;;;;;5020428;28;88543;-74
2022/05/11 01:04:22;;;;;;;4.67;1.67;;;25.40;41.90;;;;;;5021389;28;93749;-73
2022/05/11 01:06:50;;;;;;;3.83;1.97;;;25.40;41.90;;;;;;5020739;28;90287;-73
2022/05/11 01:09:19;;;;;;;3.80;1.80;;;25.40;41.90;;;;;;5021439;27;90808;-73
2022/05/11 01:11:49;;;;;;;3.73;1.90;;;25.40;41.90;;;;;;5023753;28;88485;-73
2022/05/11 01:14:20;;;;;;;3.70;1.70;;;25.40;41.90;;;;;;5030785;28;90752;-73
2022/05/11 01:16:49;;;;;;;4.23;2.03;;;25.40;41.90;;;;;;5039174;27;91113;-72
2022/05/11 01:19:21;;;;;;;2.97;1.83;;;25.40;41.90;;;;;;5031379;27;88400;-73
2022/05/11 01:21:52;;;;;;;3.70;1.90;;;25.40;41.90;;;;;;5021603;28;88372;-74
2022/05/11 01:24:27;;;;;;;3.03;1.63;;;25.40;41.90;;;;;;5020888;28;92410;-73
2022/05/11 01:26:56;;;;;;;3.07;1.53;;;25.30;41.90;;;;;;5033026;27;89862;-73
2022/05/11 01:29:23;;;;;;;3.10;2.00;;;25.40;41.90;;;;;;5033131;27;88827;-73
2022/05/11 01:31:51;;;;;;;2.00;1.40;;;25.30;41.90;;;;;;5038095;27;88685;-74
2022/05/11 01:34:23;;;;;;;3.53;1.80;;;25.30;41.90;;;;;;5040173;27;90772;-73
2022/05/11 01:36:52;;;;;;;2.37;1.47;;;25.30;41.90;;;;;;5037408;28;92386;-73
2022/05/11 01:39:20;;;;;;;4.10;1.83;;;25.30;42.50;;;;;;5037612;28;89095;-73
2022/05/11 01:41:52;;;;;;;4.43;1.50;;;25.30;41.90;;;;;;5035544;27;89061;-73
2022/05/11 01:44:20;;;;;;;2.73;1.97;;;25.30;41.90;;;;;;5019243;28;89584;-73
2022/05/11 01:46:50;;;;;;;3.50;1.93;;;25.30;42.60;;;;;;5037762;28;90327;-74
2022/05/11 01:49:18;;;;;;;2.97;1.40;;;25.30;41.90;;;;;;5031944;28;89723;-73
2022/05/11 01:51:46;;;;;;;3.37;1.47;;;25.30;41.90;;;;;;5033402;27;88706;-74
2022/05/11 01:54:14;;;;;;;4.80;2.03;;;25.30;41.90;;;;;;5026860;28;90837;-73
2022/05/11 01:56:42;;;;;;;2.20;1.60;;;25.30;41.90;;;;;;5019665;28;90122;-73
2022/05/11 01:59:11;;;;;;;2.07;1.47;;;25.30;41.90;;;;;;5019395;28;88418;-74
2022/05/11 02:01:41;;;;;;;2.67;1.57;;;25.30;41.90;;;;;;5036724;28;88649;-74
2022/05/11 02:07:49;;;;;;;2.83;1.57;;;25.30;41.90;;;;;;5039343;27;89949;-74
2022/05/11 02:09:45;;;;;;;2.63;1.50;;;25.30;41.80;;;;;;5019709;28;89792;-74
2022/05/11 02:12:13;;;;;;;3.63;1.40;;;25.30;41.90;;;;;;5019622;28;88385;-73
2022/05/11 02:14:43;;;;;;;5.10;1.53;;;25.30;41.90;;;;;;5019127;28;90048;-74
2022/05/11 02:17:12;;;;;;;2.10;1.20;;;25.30;41.90;;;;;;5020252;28;92444;-74
2022/05/11 02:19:40;;;;;;;2.13;1.40;;;25.30;41.90;;;;;;5022424;28;91612;-73
2022/05/11 02:22:09;;;;;;;5.73;1.87;;;25.20;41.80;;;;;;5027479;27;88651;-74
2022/05/11 02:24:37;;;;;;;1.87;1.00;;;25.30;41.90;;;;;;5041808;27;93440;-73
2022/05/11 02:27:05;;;;;;;2.10;1.30;;;25.20;41.80;;;;;;5032386;28;92882;-74
2022/05/11 02:29:33;;;;;;;2.53;1.33;;;25.20;41.80;;;;;;5023243;28;88476;-73
2022/05/11 02:32:03;;;;;;;3.03;1.10;;;25.30;41.90;;;;;;5025191;27;88591;-73
2022/05/11 02:37:17;;;;;;;1.33;1.20;;;25.20;41.80;;;;;;5026433;28;89116;-74
2022/05/11 02:39:46;;;;;;;3.73;1.30;;;25.10;41.70;;;;;;5024587;28;88573;-74
2022/05/11 02:42:14;;;;;;;2.80;1.10;;;25.20;41.90;;;;;;5042430;28;88448;-74
2022/05/11 02:44:42;;;;;;;3.57;1.07;;;25.20;41.90;;;;;;5039053;28;90046;-74
2022/05/11 02:47:12;;;;;;;2.17;1.23;;;25.20;41.80;;;;;;5035970;28;90070;-74
2022/05/11 02:49:40;;;;;;;2.50;0.90;;;25.20;41.80;;;;;;5040607;28;88578;-74
2022/05/11 02:52:08;;;;;;;1.87;1.37;;;25.20;41.80;;;;;;5029425;28;88683;-74
2022/05/11 02:54:36;;;;;;;2.63;0.90;;;25.20;41.90;;;;;;5042326;28;90191;-74
2022/05/11 02:57:05;;;;;;;1.70;0.77;;;25.20;41.90;;;;;;5027566;27;89110;-73
2022/05/11 02:59:37;;;;;;;1.10;0.70;;;25.20;41.90;;;;;;5031598;27;91485;-74
2022/05/11 03:02:05;;;;;;;1.33;0.90;;;25.20;41.90;;;;;;5032535;28;88493;-74
2022/05/11 03:04:35;;;;;;;0.90;0.70;;;25.20;41.90;;;;;;5042069;27;89949;-74
2022/05/11 03:07:03;;;;;;;1.60;0.90;;;25.20;41.90;;;;;;5037104;27;88939;-73
2022/05/11 03:09:31;;;;;;;1.43;1.00;;;25.20;41.90;;;;;;5040477;27;88958;-74
2022/05/11 03:12:00;;;;;;;3.20;1.20;;;25.20;41.90;;;;;;5038314;28;88646;-73
2022/05/11 03:14:28;;;;;;;3.43;1.27;;;25.20;41.90;;;;;;5021359;28;91114;-73
2022/05/11 03:16:56;;;;;;;2.03;1.20;;;25.20;41.90;;;;;;5025508;28;90053;-73
2022/05/11 03:19:24;;;;;;;1.03;0.90;;;25.20;41.90;;;;;;5036749;28;90503;-74
2022/05/11 03:21:53;;;;;;;1.40;1.00;;;25.20;42.50;;;;;;5026497;27;88312;-73
2022/05/11 03:24:21;;;;;;;2.87;1.20;;;25.20;41.80;;;;;;5040291;27;90521;-73
2022/05/11 03:26:49;;;;;;;1.80;1.43;;;25.20;41.80;;;;;;5040237;28;92802;-73
2022/05/11 03:29:18;;;;;;;2.73;1.30;;;25.20;41.80;;;;;;5037333;27;88479;-73
2022/05/11 03:34:36;;;;;;;2.80;1.10;;;25.20;41.80;;;;;;5039584;27;89702;-74
2022/05/11 03:34:36;;;;;;;4.27;1.73;;;25.20;41.80;;;;;;5022120;28;93432;-73
2022/05/11 03:37:06;;;;;;;4.83;1.57;;;25.20;41.70;;;;;;5034789;28;92440;-73
2022/05/11 03:39:34;;;;;;;4.67;2.10;;;25.10;41.70;;;;;;5037744;28;89039;-73
2022/05/11 03:42:02;;;;;;;5.47;1.90;;;25.10;42.00;;;;;;5031666;27;88750;-73
2022/05/11 03:44:30;;;;;;;3.33;1.67;;;25.10;41.70;;;;;;5030634;27;89452;-73
2022/05/11 03:46:59;;;;;;;5.07;2.20;;;25.10;41.70;;;;;;5033038;28;90166;-73
2022/05/11 03:49:28;;;;;;;6.07;2.77;;;25.10;41.70;;;;;;5036505;28;92441;-67
2022/05/11 03:51:56;;;;;;;7.47;3.53;;;25.10;41.70;;;;;;5048590;27;88602;-66
2022/05/11 03:54:26;;;;;;;6.53;3.23;;;25.10;41.70;;;;;;5047298;27;89357;-74
2022/05/11 03:56:54;;;;;;;7.70;3.17;;;25.10;41.70;;;;;;5057190;27;89158;-73
2022/05/11 03:59:22;;;;;;;6.47;3.30;;;25.10;41.70;;;;;;5043060;27;88335;-73
2022/05/11 04:01:50;;;;;;;5.90;3.50;;;25.10;41.70;;;;;;5044948;27;88488;-73
2022/05/11 04:04:18;;;;;;;5.67;3.60;;;25.10;41.70;;;;;;5045360;27;93741;-73
2022/05/11 04:06:46;;;;;;;7.77;4.00;;;25.00;41.60;;;;;;5024408;28;89662;-73
2022/05/11 04:09:14;;;;;;;8.87;4.53;;;25.10;41.70;;;;;;5019528;28;89280;-73
2022/05/11 04:11:44;;;;;;;9.73;4.10;;;25.00;41.70;;;;;;5030682;28;90258;-73
2022/05/11 04:14:12;;;;;;;7.83;4.10;;;25.00;41.60;;;;;;5036882;28;92625;-73
2022/05/11 04:16:40;;;;;;;11.57;5.37;;;25.00;41.60;;;;;;5036884;27;90086;-73
2022/05/11 04:19:09;;;;;;;11.60;6.00;;;25.00;41.60;;;;;;5020602;28;89608;-73
2022/05/11 04:21:36;;;;;;;10.60;5.33;;;25.00;41.70;;;;;;5031190;28;88643;-74
2022/05/11 04:24:05;;;;;;;10.03;4.93;;;25.00;41.70;;;;;;5028985;28;93946;-73
2022/05/11 04:26:36;;;;;;;10.37;5.87;;;25.00;41.70;;;;;;5022862;28;89011;-74
2022/05/11 04:29:06;;;;;;;8.93;5.87;;;25.00;41.70;;;;;;5021944;28;89398;-74
2022/05/11 04:31:34;;;;;;;10.20;5.57;;;25.00;41.70;;;;;;5021179;28;88512;-73
2022/05/11 04:34:02;;;;;;;11.73;5.40;;;25.00;41.70;;;;;;5022912;28;90576;-66
2022/05/11 04:36:30;;;;;;;9.23;5.47;;;25.00;41.70;;;;;;5033347;28;89675;-74
2022/05/11 04:38:58;;;;;;;6.40;4.67;;;25.00;41.60;;;;;;5032859;28;91857;-74
2022/05/11 04:41:37;;;;;;;9.63;5.40;;;25.10;41.70;;;;;;5036560;27;88704;-70
2022/05/11 04:44:09;;;;;;;7.20;4.60;;;25.00;41.70;;;;;;5026436;27;89705;-69
2022/05/11 04:46:38;;;;;;;9.70;4.80;;;25.00;41.60;;;;;;5042961;28;90121;-66
2022/05/11 04:49:20;;;;;;;9.40;5.10;;;25.00;41.70;;;;;;5039869;27;88326;-67
2022/05/11 04:51:51;;;;;;;7.83;4.23;;;25.00;41.60;;;;;;5037801;28;88461;-66
2022/05/11 04:54:19;;;;;;;8.43;4.13;;;25.00;41.60;;;;;;5021620;28;90210;-66
2022/05/11 04:56:47;;;;;;;9.43;4.30;;;25.00;41.60;;;;;;5021358;28;90074;-67
2022/05/11 04:59:16;;;;;;;8.23;4.03;;;25.00;41.60;;;;;;5023924;28;88565;-74
2022/05/11 05:01:45;;;;;;;6.37;3.67;;;25.00;41.60;;;;;;5032277;27;88826;-72
2022/05/11 05:04:13;;;;;;;6.90;3.77;;;25.00;41.60;;;;;;5019851;27;91980;-72
2022/05/11 05:06:41;;;;;;;4.37;2.30;;;25.00;41.50;;;;;;5023948;28;90318;-70
2022/05/11 05:09:09;;;;;;;5.07;2.40;;;25.10;41.60;;;;;;5020070;28;88945;-73
2022/05/11 05:11:37;;;;;;;4.60;2.43;;;25.10;41.60;;;;;;5026963;28;88656;-72
2022/05/11 05:14:06;;;;;;;2.37;1.80;;;25.20;41.70;;;;;;5031910;28;90126;-72
2022/05/11 05:16:36;;;;;;;3.20;2.07;;;25.20;41.60;;;;;;5038448;28;92931;-72
2022/05/11 05:19:05;;;;;;;4.27;1.90;;;25.30;41.60;;;;;;5031461;28;91561;-72
2022/05/11 05:21:33;;;;;;;2.93;2.40;;;25.40;41.60;;;;;;5027699;28;88395;-72
2022/05/11 05:24:01;;;;;;;4.67;2.07;;;25.50;41.50;;;;;;5025030;27;90706;-72
2022/05/11 05:26:30;;;;;;;2.87;1.70;;;25.50;41.40;;;;;;5032128;28;90042;-73
2022/05/11 05:31:45;;;;;;;3.33;1.33;;;25.60;41.20;;;;;;5021403;28;88437;-72
2022/05/11 05:34:14;;;;;;;2.10;1.50;;;25.70;41.20;;;;;;5025501;28;90883;-72
2022/05/11 05:36:42;;;;;;;3.47;1.30;;;25.70;41.00;;;;;;5038947;28;92617;-72
2022/05/11 05:39:10;;;;;;;2.37;1.37;;;25.70;40.90;;;;;;5039296;28;88592;-72
2022/05/11 05:41:38;;;;;;;4.17;1.30;;;25.80;40.80;;;;;;5038581;28;88370;-73
2022/05/11 05:44:06;;;;;;;5.43;1.70;;;25.80;40.80;;;;;;5037468;28;92417;-72
2022/05/11 05:46:36;;;;;;;2.07;1.00;;;25.80;40.80;;;;;;5037347;28;89198;-73
2022/05/11 05:49:05;;;;;;;3.07;1.20;;;25.80;40.70;;;;;;5032979;27;89480;-73
2022/05/11 05:51:33;;;;;;;1.17;1.07;;;25.90;40.80;;;;;;5031073;28;88515;-72
2022/05/11 05:54:02;;;;;;;4.70;1.60;;;25.90;40.80;;;;;;5019237;28;92187;-72
2022/05/11 05:56:32;;;;;;;0.77;0.77;;;25.90;40.60;;;;;;5032747;28;90162;-72
2022/05/11 05:59:03;;;;;;;2.10;1.07;;;25.90;40.60;;;;;;5043831;27;88393;-72
2022/05/11 06:01:31;;;;;;;2.40;1.43;;;25.80;40.50;;;;;;5035126;27;88603;-72
2022/05/11 06:03:59;;;;;;;2.13;1.10;;;25.80;40.60;;;;;;5041534;28;90455;-72
2022/05/11 06:06:29;;;;;;;3.50;1.20;;;25.80;40.70;;;;;;5032224;27;90972;-72
2022/05/11 06:08:59;;;;;;;0.80;0.80;;;25.80;40.80;;;;;;5028721;28;89685;-73
2022/05/11 06:11:27;;;;;;;3.53;0.90;;;25.80;41.00;;;;;;5038879;27;90401;-73
2022/05/11 06:13:56;;;;;;;1.43;0.93;;;25.70;41.10;;;;;;5040927;27;90053;-72
2022/05/11 06:16:24;;;;;;;2.87;1.33;;;25.70;41.30;;;;;;5036617;27;88872;-73
2022/05/11 06:18:53;;;;;;;2.20;0.90;;;25.70;41.30;;;;;;5035333;28;88558;-72
2022/05/11 06:21:21;;;;;;;3.03;0.90;;;25.60;41.30;;;;;;5041919;28;88327;-73
2022/05/11 06:23:51;;;;;;;1.67;0.80;;;25.60;41.40;;;;;;5037665;28;90059;-72
2022/05/11 06:26:19;;;;;;;1.90;1.10;;;25.60;41.40;;;;;;5042218;27;89880;-73
2022/05/11 06:28:47;;;;;;;1.53;0.73;;;25.60;41.40;;;;;;5041479;27;90289;-73
2022/05/11 06:31:18;;;;;;;1.53;0.60;;;25.50;41.40;;;;;;5042371;27;88593;-73
2022/05/11 06:33:49;;;;;;;2.57;0.50;;;25.50;41.40;;;;;;5037723;27;92743;-72
2022/05/11 06:36:18;;;;;;;2.83;0.93;;;25.60;41.40;;;;;;5034262;28;88480;-72
2022/05/11 06:38:46;;;;;;;1.40;0.47;;;25.60;41.40;;;;;;5041154;27;89419;-73
2022/05/11 06:41:18;;;;;;;1.90;0.90;;;25.60;41.50;;;;;;5022729;28;88592;-73
2022/05/11 06:43:46;;;;;;;2.27;1.07;;;25.60;41.40;;;;;;5030055;28;90536;-73
2022/05/11 06:46:14;;;;;;;3.70;1.17;;;25.60;41.50;;;;;;5034582;28;91468;-72
2022/05/11 06:48:42;;;;;;;3.30;0.70;;;25.70;41.60;;;;;;5041659;27;88853;-72
2022/05/11 06:51:10;;;;;;;0.90;0.50;;;25.70;41.70;;;;;;5042751;28;88239;-73
2022/05/11 06:59:21;;;;;;;2.40;0.90;;;25.80;41.90;;;;;;5022184;28;88577;-73
2022/05/11 07:01:50;;;;;;;1.63;0.83;;;25.70;41.90;;;;;;5033308;27;88687;-72
2022/05/11 07:04:22;;;;;;;1.53;0.70;;;25.80;41.90;;;;;;5040732;27;90262;-72
2022/05/11 07:06:51;;;;;;;1.50;0.70;;;25.80;41.90;;;;;;5056512;27;88806;-72
2022/05/11 07:09:20;;;;;;;1.53;0.70;;;25.80;41.80;;;;;;5040196;27;89846;-72
2022/05/11 07:14:35;;;;;;;2.50;0.60;;;25.80;41.70;;;;;;5042684;27;90617;-72
2022/05/11 07:17:04;;;;;;;0.80;0.40;;;25.80;41.70;;;;;;5037596;27;89804;-72
2022/05/11 07:19:33;;;;;;;0.53;0.50;;;25.80;41.60;;;;;;5036265;27;88884;-72
2022/05/11 07:22:01;;;;;;;0.97;0.60;;;25.80;41.50;;;;;;5022013;28;88612;-71
2022/05/11 07:24:29;;;;;;;0.60;0.40;;;25.80;41.40;;;;;;5041375;27;89500;-72
2022/05/11 07:26:59;;;;;;;1.60;0.63;;;25.70;41.30;;;;;;5041444;27;89217;-72
2022/05/11 07:29:28;;;;;;;0.80;0.40;;;25.70;41.20;;;;;;5040468;27;88834;-72
2022/05/11 07:31:56;;;;;;;1.27;0.63;;;25.70;41.10;;;;;;5041010;27;88460;-72
2022/05/11 07:34:24;;;;;;;2.33;0.70;;;25.70;41.10;;;;;;5039557;27;88866;-72
2022/05/11 07:36:54;;;;;;;2.30;0.73;;;25.70;41.10;;;;;;5059733;27;90081;-73
2022/05/11 07:39:23;;;;;;;3.90;0.67;;;25.70;41.20;;;;;;5062153;27;88449;-71
2022/05/11 07:41:51;;;;;;;1.47;0.40;;;25.70;41.30;;;;;;5060410;27;88624;-71
2022/05/11 07:44:20;;;;;;;0.40;0.40;;;25.70;41.30;;;;;;5028846;28;90012;-70
2022/05/11 07:46:48;;;;;;;0.30;0.30;;;25.70;41.30;;;;;;5036159;27;89076;-71
2022/05/11 07:49:17;;;;;;;4.07;1.10;;;25.70;41.90;;;;;;5035102;27;89248;-73
2022/05/11 07:51:46;;;;;;;0.30;0.30;;;25.70;41.30;;;;;;5031358;28;88551;-70
2022/05/11 07:54:14;;;;;;;2.27;0.53;;;25.60;41.20;;;;;;5041112;27;90067;-69
2022/05/11 07:59:59;;;;;;;1.70;0.60;;;25.70;41.20;;;;;;4977565;28;88705;-70
2022/05/11 08:02:29;;;;;;;3.33;0.50;;;25.60;41.00;;;;;;5033940;27;88633;-70
2022/05/11 08:04:58;;;;;;;0.80;0.60;;;25.60;41.00;;;;;;5039963;27;88381;-69
2022/05/11 08:07:27;;;;;;;1.33;0.93;;;25.60;41.00;;;;;;5046387;27;90367;-70
2022/05/11 08:09:58;;;;;;;2.83;0.77;;;25.60;41.00;;;;;;5040988;27;88851;-69
2022/05/11 08:12:26;;;;;;;5.17;0.70;;;25.60;41.00;;;;;;5040032;27;88471;-69
2022/05/11 08:14:56;;;;;;;0.50;0.30;;;25.60;40.90;;;;;;5040540;28;93107;-70
2022/05/11 08:17:28;;;;;;;2.13;0.70;;;25.60;40.90;;;;;;5047428;27;90080;-69
2022/05/11 08:19:56;;;;;;;2.50;0.77;;;25.50;40.80;;;;;;5052531;27;89032;-69
2022/05/11 08:22:26;;;;;;;1.33;0.43;;;25.50;40.70;;;;;;5049586;27;88488;-70
2022/05/11 08:24:54;;;;;;;2.37;0.70;;;25.50;40.80;;;;;;5059493;27;89736;-69
2022/05/11 08:27:24;;;;;;;1.30;0.60;;;25.50;40.80;;;;;;5054578;27;88505;-69
2022/05/11 08:35:50;;;;;;;1.10;0.50;;;25.50;41.00;;;;;;5018609;28;91823;-69
2022/05/11 08:38:18;;;;;;;2.50;0.47;;;25.50;41.10;;;;;;5020109;28;89133;-70
2022/05/11 08:40:47;;;;;;;1.23;0.67;;;25.50;41.10;;;;;;5053453;27;88907;-69
2022/05/11 08:43:17;;;;;;;2.17;0.73;;;25.50;41.20;;;;;;5060381;27;88304;-69
2022/05/11 08:45:54;;;;;;;3.93;0.93;;;25.50;41.20;;;;;;5060046;27;91042;-69
2022/05/11 08:48:28;;;;;;;1.50;0.53;;;25.40;41.20;;;;;;5061113;27;88973;-69
2022/05/11 08:50:56;;;;;;;0.87;0.70;;;25.40;41.20;;;;;;5044784;27;88687;-69
2022/05/11 08:53:31;;;;;;;1.43;0.70;;;25.40;41.40;;;;;;5040325;27;88359;-69
2022/05/11 08:55:59;;;;;;;3.40;0.83;;;25.40;41.40;;;;;;5039982;27;89887;-69
2022/05/11 08:58:29;;;;;;;1.83;0.50;;;25.40;41.40;;;;;;5020321;28;89604;-69
2022/05/11 09:01:02;;;;;;;2.20;0.70;;;25.40;41.40;;;;;;5030909;28;88388;-69
2022/05/11 09:03:32;;;;;;;2.67;0.83;;;25.40;41.40;;;;;;5054591;27;88388;-69
2022/05/11 09:06:00;;;;;;;2.23;0.90;;;25.40;41.50;;;;;;5043147;27;90607;-69
2022/05/11 09:08:29;;;;;;;3.90;0.77;;;25.30;41.40;;;;;;5055652;27;90177;-69
2022/05/11 09:10:58;;;;;;;3.17;0.90;;;25.40;41.60;;;;;;5060026;27;88369;-69
2022/05/11 09:13:27;;;;;;;5.07;0.70;;;25.40;41.60;;;;;;5023206;27;88304;-69
2022/05/11 09:16:00;;;;;;;3.70;0.60;;;25.40;42.30;;;;;;5028981;27;89515;-69
2022/05/11 09:18:39;;;;;;;2.40;0.60;;;25.40;41.70;;;;;;5060190;27;91466;-69
2022/05/11 09:21:19;;;;;;;4.90;0.93;;;25.40;41.80;;;;;;5036953;28;88251;-70
2022/05/11 09:23:51;;;;;;;3.33;1.23;;;25.40;41.80;;;;;;5039846;28;88167;-71
2022/05/11 09:26:20;;;;;;;3.70;1.07;;;25.40;41.90;;;;;;5038595;27;89687;-71
2022/05/11 09:28:48;;;;;;;5.40;0.70;;;25.50;42.00;;;;;;5030971;27;89016;-71
2022/05/11 09:31:25;;;;;;;4.23;1.00;;;25.50;42.00;;;;;;5019282;28;88219;-70
2022/05/11 09:33:58;;;;;;;2.70;1.03;;;25.50;42.10;;;;;;5019864;28;88854;-71
2022/05/11 09:36:54;;;;;;;2.23;0.93;;;25.50;42.70;;;;;;5039655;27;92625;-71
2022/05/11 09:39:23;;;;;;;4.93;1.00;;;25.50;42.00;;;;;;5055675;27;90038;-72
2022/05/11 09:41:51;;;;;;;2.40;1.13;;;25.50;42.00;;;;;;5042581;27;92721;-72
2022/05/11 09:44:20;;;;;;;1.50;1.07;;;25.40;41.90;;;;;;5054572;27;88718;-71
2022/05/11 09:46:49;;;;;;;6.47;1.17;;;25.40;41.90;;;;;;5058630;27;90085;-71
2022/05/11 09:49:27;;;;;;;1.43;0.70;;;25.40;41.90;;;;;;5050817;27;90112;-71
2022/05/11 09:51:56;;;;;;;4.70;0.73;;;25.40;41.90;;;;;;5037754;27;88666;-70
2022/05/11 09:54:29;;;;;;;2.03;0.77;;;25.40;41.80;;;;;;5038592;27;88569;-70
2022/05/11 09:57:01;;;;;;;1.90;0.63;;;25.40;41.70;;;;;;5039791;27;90176;-71
2022/05/11 09:59:31;;;;;;;3.40;1.10;;;25.40;41.70;;;;;;5038254;28;89322;-70
2022/05/11 10:02:16;;;;;;;3.93;0.90;;;25.40;41.70;;;;;;5038860;28;89254;-70
2022/05/11 10:04:45;;;;;;;0.73;0.63;;;25.30;41.50;;;;;;5039391;28;88407;-71
2022/05/11 10:07:14;;;;;;;2.50;0.73;;;25.40;41.60;;;;;;5038884;27;90742;-70
2022/05/11 10:09:44;;;;;;;3.03;0.93;;;25.40;41.50;;;;;;5039285;28;90732;-71
2022/05/11 10:12:15;;;;;;;1.77;0.73;;;25.40;41.50;;;;;;5038651;27;88531;-70
2022/05/11 10:23:27;;;;;;;5.30;0.80;;;25.40;41.30;;;;;;5039023;27;88412;-70
2022/05/11 10:25:58;;;;;;;1.20;0.60;;;25.40;41.20;;;;;;5039604;27;88540;-70
2022/05/11 10:28:30;;;;;;;1.07;0.90;;;25.40;41.20;;;;;;5039634;28;89368;-70
2022/05/11 10:31:01;;;;;;;2.97;0.80;;;25.40;41.10;;;;;;5034729;27;90376;-71
2022/05/11 10:33:49;;;;;;;3.03;0.97;;;25.40;41.10;;;;;;5038590;28;90015;-70
2022/05/11 10:36:27;;;;;;;2.50;0.83;;;25.40;41.10;;;;;;5039360;27;88511;-71
2022/05/11 10:39:04;;;;;;;3.17;0.67;;;25.40;41.10;;;;;;5038909;28;90215;-70
2022/05/11 10:41:35;;;;;;;3.50;0.90;;;25.50;41.10;;;;;;5040330;27;89016;-70
2022/05/11 10:44:06;;;;;;;0.70;0.50;;;25.50;41.00;;;;;;5041923;28;88957;-70
2022/05/11 10:46:37;;;;;;;0.93;0.57;;;25.50;40.90;;;;;;5032121;27;88301;-70
2022/05/11 10:49:53;;;;;;;5.43;1.13;;;25.50;40.90;;;;;;5021384;28;89476;-70
2022/05/11 10:52:33;;;;;;;3.33;1.07;;;25.50;41.00;;;;;;4979458;28;90999;-71
2022/05/11 10:55:10;;;;;;;3.90;1.00;;;25.60;41.00;;;;;;5020130;28;88331;-71
2022/05/11 10:57:47;;;;;;;2.43;1.00;;;25.60;41.00;;;;;;5021912;28;88624;-71
2022/05/11 11:00:21;;;;;;;3.13;1.30;;;25.60;41.00;;;;;;5033822;28;91552;-71
2022/05/11 11:03:19;;;;;;;2.53;1.20;;;25.70;41.10;;;;;;5035701;28;88953;-70
2022/05/11 11:08:50;;;;;;;0.70;0.60;;;25.70;40.90;;;;;;5021379;28;88657;-71
2022/05/11 11:11:21;;;;;;;2.73;0.83;;;25.70;40.80;;;;;;5020676;28;89714;-70
2022/05/11 11:13:52;;;;;;;1.63;0.50;;;25.70;40.70;;;;;;5021686;28;88750;-70
2022/05/11 11:16:20;;;;;;;3.33;0.90;;;25.70;40.60;;;;;;5021880;28;88550;-71
2022/05/11 11:18:49;;;;;;;1.43;0.50;;;25.70;40.60;;;;;;5022224;28;88440;-71
2022/05/11 11:21:17;;;;;;;3.00;0.93;;;25.70;40.50;;;;;;5020851;28;89567;-70
2022/05/11 11:23:47;;;;;;;2.30;1.07;;;25.70;40.50;;;;;;5020717;28;90110;-70
2022/05/11 11:27:03;;;;;;;1.43;0.57;;;25.70;40.40;;;;;;5021469;28;89823;-71
2022/05/11 11:29:32;;;;;;;1.63;0.90;;;25.70;40.40;;;;;;5011496;28;88896;-71
2022/05/11 11:32:05;;;;;;;0.90;0.50;;;25.80;40.40;;;;;;5027741;27;93737;-70
2022/05/11 11:34:34;;;;;;;0.90;0.73;;;25.80;40.30;;;;;;5039878;27;89298;-69
2022/05/11 11:37:39;;;;;;;1.43;1.00;;;25.80;40.30;;;;;;5051551;27;88572;-69
2022/05/11 11:40:26;;;;;;;2.17;0.80;;;25.70;40.20;;;;;;5051615;27;88497;-70
2022/05/11 11:42:56;;;;;;;2.50;1.00;;;25.70;40.20;;;;;;5041423;28;90162;-70
2022/05/11 11:45:59;;;;;;;4.03;1.10;;;25.80;40.20;;;;;;5041399;27;89398;-69
2022/05/11 11:48:27;;;;;;;2.93;0.60;;;25.80;40.20;;;;;;5040763;27;88350;-70
2022/05/11 11:50:58;;;;;;;0.77;0.50;;;25.80;40.10;;;;;;5039382;27;88694;-70
2022/05/11 11:53:31;;;;;;;1.13;0.83;;;25.80;40.20;;;;;;5039917;27;90776;-69
2022/05/11 11:56:32;;;;;;;1.20;0.70;;;25.80;40.20;;;;;;5040494;27;90083;-70
2022/05/11 11:59:06;;;;;;;0.70;0.70;;;25.80;40.20;;;;;;5040819;28;88739;-70
2022/05/11 12:01:36;;;;;;;5.47;1.63;;;25.90;40.30;;;;;;5049216;27;88587;-69
2022/05/11 12:04:08;;;;;;;3.70;0.97;;;25.90;40.30;;;;;;5054176;27;89945;-70
2022/05/11 12:15:04;;;;;;;0.97;0.60;;;25.90;40.50;;;;;;5040701;27;90784;-70
2022/05/11 12:17:34;;;;;;;0.67;0.60;;;26.00;40.70;;;;;;5040081;27;89086;-70
2022/05/11 12:20:07;;;;;;;2.80;0.87;;;26.00;40.70;;;;;;5040623;27;89604;-70
2022/05/11 12:22:44;;;;;;;5.47;0.90;;;26.00;40.80;;;;;;5041527;28;89345;-70
2022/05/11 12:25:28;;;;;;;0.70;0.70;;;26.00;40.80;;;;;;5038350;27;92404;-70
2022/05/11 12:27:57;;;;;;;4.47;1.20;;;26.00;40.90;;;;;;5040563;27;89080;-70
2022/05/11 12:30:30;;;;;;;1.70;0.70;;;26.10;40.90;;;;;;5040146;27;88421;-70
2022/05/11 12:32:58;;;;;;;2.50;0.87;;;26.10;40.90;;;;;;5039886;28;88582;-70
2022/05/11 12:35:31;;;;;;;1.37;0.63;;;26.10;41.00;;;;;;5039512;27;88358;-70
2022/05/11 12:38:00;;;;;;;2.13;0.77;;;26.10;41.00;;;;;;5039558;27;89129;-70
2022/05/11 12:40:30;;;;;;;1.70;0.70;;;26.10;41.10;;;;;;5040809;27;88913;-70
2022/05/11 12:42:59;;;;;;;3.70;1.03;;;26.20;41.20;;;;;;5039864;27;88637;-69
2022/05/11 12:45:36;;;;;;;4.17;1.10;;;26.20;41.20;;;;;;5025951;27;89733;-70
2022/05/11 12:48:05;;;;;;;2.20;0.67;;;26.20;41.20;;;;;;5034806;27;88924;-69
2022/05/11 12:50:37;;;;;;;2.80;1.00;;;26.20;41.20;;;;;;5039706;28;88759;-69
2022/05/11 12:53:22;;;;;;;4.17;1.00;;;26.20;41.30;;;;;;5040262;28;88240;-69
2022/05/11 12:55:52;;;;;;;4.43;0.80;;;26.20;41.30;;;;;;5040163;27;90826;-69
2022/05/11 12:58:25;;;;;;;5.23;1.07;;;26.30;41.40;;;;;;5039708;27;90035;-69
2022/05/11 13:00:58;;;;;;;3.83;1.10;;;26.30;41.40;;;;;;5039398;27;88528;-70
2022/05/11 13:03:30;;;;;;;4.23;1.13;;;26.30;41.50;;;;;;5040439;27;89253;-70
2022/05/11 13:06:00;;;;;;;5.70;0.80;;;26.30;41.50;;;;;;5038424;27;90690;-70
2022/05/11 13:08:37;;;;;;;1.97;0.70;;;26.30;41.50;;;;;;5060140;27;90034;-69
2022/05/11 13:11:09;;;;;;;2.97;0.60;;;26.30;41.50;;;;;;5059704;27;89809;-69
2022/05/11 13:13:37;;;;;;;1.73;0.77;;;26.30;41.50;;;;;;5059833;27;89641;-70
2022/05/11 13:16:08;;;;;;;1.30;0.90;;;26.40;41.60;;;;;;5059788;27;89619;-69
2022/05/11 13:18:36;;;;;;;3.30;0.70;;;26.40;41.60;;;;;;5051938;27;90178;-69
2022/05/11 13:21:06;;;;;;;2.00;0.90;;;26.40;41.60;;;;;;5019933;28;88930;-69
2022/05/11 13:23:36;;;;;;;2.03;1.03;;;26.40;41.50;;;;;;5026864;27;88671;-68
2022/05/11 13:26:05;;;;;;;6.50;1.10;;;26.40;41.50;;;;;;5059751;27;90034;-69
2022/05/11 13:28:37;;;;;;;5.47;1.10;;;26.40;41.50;;;;;;5059965;27;93096;-69
2022/05/11 13:31:25;;;;;;;1.17;0.93;;;26.40;41.60;;;;;;5060174;27;89049;-69
2022/05/11 13:33:53;;;;;;;5.53;1.03;;;26.40;41.60;;;;;;5046645;27;88562;-68
2022/05/11 13:36:23;;;;;;;3.87;1.00;;;26.40;41.60;;;;;;5043229;27;91799;-68
2022/05/11 13:39:01;;;;;;;4.50;1.30;;;26.40;41.60;;;;;;5058971;27;90147;-69
2022/05/11 13:41:32;;;;;;;6.87;1.30;;;26.40;41.60;;;;;;5060278;27;88442;-68
2022/05/11 13:44:03;;;;;;;3.00;1.00;;;26.50;41.60;;;;;;5060042;27;88486;-69
2022/05/11 13:48:11;;;;;;;2.53;1.27;;;26.50;41.60;;;;;;5059750;27;90386;-69
2022/05/11 13:49:31;;;;;;;3.87;0.80;;;26.60;41.60;;;;;;5045082;27;89458;-68
2022/05/11 13:52:00;;;;;;;5.73;1.63;;;26.60;41.60;;;;;;5037559;27;88789;-69
2022/05/11 13:54:29;;;;;;;3.50;1.00;;;26.60;41.60;;;;;;5039194;27;88583;-69